createdAt,value
2023-02-18T00:00:48.294Z,0
2023-02-18T00:05:48.855Z,0
2023-02-18T00:10:48.314Z,0
2023-02-18T00:15:48.859Z,0
2023-02-18T00:20:48.460Z,0
2023-02-18T00:25:48.906Z,0
2023-02-18T00:30:48.823Z,0
2023-02-18T00:35:48.850Z,0
2023-02-18T00:40:48.509Z,0
2023-02-18T00:45:49.027Z,0
2023-02-18T00:50:48.595Z,0
2023-02-18T00:55:49.154Z,0
2023-02-18T01:00:48.749Z,0
2023-02-18T01:05:49.181Z,0
2023-02-18T01:10:48.612Z,0
2023-02-18T01:15:48.414Z,0
2023-02-18T01:20:48.713Z,0
2023-02-18T01:25:49.022Z,0
2023-02-18T01:30:48.991Z,0
2023-02-18T01:35:49.135Z,0
2023-02-18T01:40:48.461Z,0
2023-02-18T01:45:48.912Z,0
2023-02-18T01:50:49.283Z,0
2023-02-18T01:55:48.349Z,0
2023-02-18T02:00:48.836Z,0
2023-02-18T02:05:49.125Z,0
2023-02-18T02:10:48.555Z,0
2023-02-18T02:15:48.800Z,0
2023-02-18T02:20:49.104Z,0
2023-02-18T02:25:48.643Z,0
2023-02-18T02:30:49.079Z,0
2023-02-18T02:35:49.125Z,0
2023-02-18T02:40:48.422Z,0
2023-02-18T02:45:48.858Z,0
2023-02-18T02:50:49.322Z,0
2023-02-18T02:55:48.736Z,0
2023-02-18T03:00:49.016Z,0
2023-02-18T03:05:48.961Z,0
2023-02-18T03:10:48.855Z,0
2023-02-18T03:15:48.402Z,0
2023-02-18T03:20:48.414Z,0
2023-02-18T03:25:48.552Z,0
2023-02-18T03:30:49.222Z,0
2023-02-18T03:35:48.697Z,0
2023-02-18T03:40:48.748Z,0
2023-02-18T03:45:49.108Z,0
2023-02-18T03:50:48.552Z,0
2023-02-18T03:55:48.363Z,0
2023-02-18T04:00:48.433Z,0
2023-02-18T04:05:49.034Z,0
2023-02-18T04:10:48.685Z,0
2023-02-18T04:15:48.981Z,0
2023-02-18T04:20:48.625Z,0
2023-02-18T04:25:49.117Z,0
2023-02-18T04:30:48.866Z,0
2023-02-18T04:35:48.803Z,0
2023-02-18T04:40:49.116Z,0
2023-02-18T04:45:48.472Z,0
2023-02-18T04:50:48.846Z,0
2023-02-18T04:55:48.322Z,0
2023-02-18T05:00:48.612Z,0
2023-02-18T05:05:49.243Z,0
2023-02-18T05:10:48.614Z,0
2023-02-18T05:15:48.961Z,0
2023-02-18T05:20:49.325Z,0
2023-02-18T05:25:48.500Z,0
2023-02-18T05:30:49.435Z,0
2023-02-18T05:35:48.638Z,0
2023-02-18T05:40:49.285Z,0
2023-02-18T05:45:48.524Z,0
2023-02-18T05:50:48.751Z,0
2023-02-18T05:55:48.945Z,0
2023-02-18T06:00:49.164Z,0
2023-02-18T06:05:48.480Z,0
2023-02-18T06:10:48.754Z,0
2023-02-18T06:15:48.983Z,0
2023-02-18T06:20:49.248Z,0
2023-02-18T11:25:49.163Z,45
2023-02-18T11:30:49.352Z,45
2023-02-18T11:35:49.436Z,79
2023-02-18T11:40:48.757Z,79
2023-02-18T11:45:48.913Z,79
2023-02-18T11:50:49.082Z,79
2023-02-18T11:55:49.190Z,61.8
2023-02-18T12:00:49.501Z,61.8
2023-02-18T12:05:48.672Z,14
2023-02-18T12:10:48.996Z,14
2023-02-18T12:15:49.390Z,25.8
2023-02-18T12:20:48.796Z,25.8
2023-02-18T12:25:48.915Z,32.2
2023-02-18T12:30:49.010Z,32.2
2023-02-18T12:35:49.270Z,20.6
2023-02-18T12:40:48.676Z,20.6
2023-02-18T12:45:48.974Z,32
2023-02-18T12:50:49.191Z,32
2023-02-18T12:55:49.243Z,35
2023-02-18T13:00:49.449Z,35
2023-02-18T13:05:48.573Z,41.2
2023-02-18T13:10:48.799Z,41.2
2023-02-18T13:15:49.068Z,35
2023-02-18T13:20:49.296Z,35
2023-02-18T13:25:49.359Z,35
2023-02-18T13:30:49.716Z,35
2023-02-18T13:35:48.981Z,30.5
2023-02-18T13:40:49.289Z,30.5
2023-02-18T13:45:49.534Z,33
2023-02-18T13:50:48.783Z,33
2023-02-18T13:55:49.028Z,37.5
2023-02-18T14:00:49.327Z,37.5
2023-02-18T14:05:49.580Z,61
2023-02-18T14:10:48.720Z,61
2023-02-18T14:15:49.119Z,40.2
2023-02-18T14:20:49.292Z,40.2
2023-02-18T14:25:49.338Z,39
2023-02-18T14:30:49.952Z,39
2023-02-18T14:35:49.151Z,26.5
2023-02-18T14:40:49.434Z,26.5
2023-02-18T14:45:48.683Z,34.6
2023-02-18T14:50:50.580Z,34.6
2023-02-18T14:55:48.887Z,35
2023-02-18T15:00:49.328Z,35
2023-02-18T15:05:49.273Z,67.4
2023-02-18T15:10:49.653Z,67.4
2023-02-18T15:15:49.586Z,63
2023-02-18T15:20:49.410Z,63
2023-02-18T15:25:49.011Z,63
2023-02-18T15:30:48.982Z,63
2023-02-18T15:35:48.674Z,63
2023-02-18T15:40:49.589Z,63
2023-02-18T16:00:49.359Z,63
2023-02-18T16:05:49.642Z,63
2023-02-18T16:10:49.166Z,63
2023-02-18T16:15:49.026Z,63
